Libertyville, Illinois
Current Conditions -  °F | °C
As of 6:55 PM on Sunday 21 Dec 2014 (Local Time) from KUGN Reporting Station
Overcast Overcast  
Wind Chill: 27°   Ceiling: 2000
Heat Index: 35°   Visibility: 8mi
Dew Point: 28°   Wind: 10mph
Humidity: 76%   Direction: 150°SSE
Pressure: 30.07"   Gusts: NA
Location:  42.29°N, 87.95°W
Report Text: KUGN 220055Z 15009KT 8SM BKN020 OVC029 02/M02 A3007 RMK AO2 SLP192 T00171022
Loading
Personal Weather Stations






























Interactive Weather Map New forecast layout! Learn more

10-Day Weather Forecast

Advertisements
Track Severe Weather on mobile